createdAt,value
2019-02-28T00:00:42.693Z,100890.55
2019-02-28T00:03:11.536Z,100890.51
2019-02-28T00:05:42.169Z,100898.84
2019-02-28T00:08:11.314Z,100855.53
2019-02-28T00:10:40.373Z,100910.59
2019-02-28T00:13:09.023Z,100909.28
2019-02-28T00:15:38.096Z,100907.15
2019-02-28T00:18:10.156Z,100907.31
2019-02-28T00:20:39.197Z,100908.26
2019-02-28T00:23:07.860Z,100910.47
2019-02-28T00:25:38.082Z,100906.98
2019-02-28T00:28:09.581Z,100900.47
2019-02-28T00:30:40.819Z,100898.73
2019-02-28T00:33:09.139Z,100888.20
2019-02-28T00:35:40.973Z,100890.84
2019-02-28T00:38:09.829Z,100893.50
2019-02-28T00:40:59.639Z,100896.14
2019-02-28T00:43:31.201Z,100886.09
2019-02-28T00:46:00.653Z,100889.20
2019-02-28T00:48:31.615Z,100881.81
2019-02-28T00:51:00.479Z,100876.61
2019-02-28T00:53:29.257Z,100870.97
2019-02-28T00:55:58.080Z,100868.38
2019-02-28T00:58:29.015Z,100867.09
2019-02-28T01:00:57.536Z,100864.06
2019-02-28T01:03:27.296Z,100862.75
2019-02-28T01:06:01.726Z,100856.25
2019-02-28T01:08:30.856Z,100858.92
2019-02-28T01:11:00.941Z,100855.97
2019-02-28T01:13:29.952Z,100851.58
2019-02-28T01:15:58.963Z,100852.89
2019-02-28T01:18:27.600Z,100847.27
2019-02-28T01:20:56.647Z,100842.05
2019-02-28T01:23:25.811Z,100844.21
2019-02-28T01:25:58.090Z,100842.44
2019-02-28T01:28:27.707Z,100841.52
2019-02-28T01:30:57.432Z,100837.23
2019-02-28T01:33:26.437Z,100834.63
2019-02-28T01:35:55.260Z,100831.64
2019-02-28T01:38:25.101Z,100833.89
2019-02-28T01:40:54.057Z,100829.11
2019-02-28T01:43:28.317Z,100831.11
2019-02-28T01:45:54.039Z,100836.33
2019-02-28T01:48:25.477Z,100832.82
2019-02-28T01:50:55.169Z,100828.35
2019-02-28T01:53:24.078Z,100823.95
2019-02-28T01:55:54.625Z,100821.02
2019-02-28T01:58:23.438Z,100820.59
2019-02-28T02:00:53.627Z,100825.48
2019-02-28T02:03:22.528Z,100819.42
2019-02-28T02:05:53.196Z,100813.27
2019-02-28T02:08:21.876Z,100810.73
2019-02-28T02:10:55.840Z,100808.95
2019-02-28T02:13:23.679Z,100797.70
2019-02-28T02:15:52.759Z,100796.90
2019-02-28T02:18:21.782Z,100787.81
2019-02-28T02:20:52.393Z,100790.89
2019-02-28T02:23:22.448Z,100785.67
2019-02-28T02:25:51.111Z,100789.66
2019-02-28T02:28:20.203Z,100784.84
2019-02-28T02:30:50.955Z,100785.75
2019-02-28T02:33:19.750Z,100782.23
2019-02-28T02:35:50.380Z,100774.85
2019-02-28T02:38:19.097Z,100781.77
2019-02-28T02:40:49.846Z,100770.55
2019-02-28T02:43:22.141Z,100763.98
2019-02-28T02:45:49.228Z,100769.69
2019-02-28T02:48:18.473Z,100764.47
2019-02-28T02:50:47.091Z,100763.16
2019-02-28T02:53:15.949Z,100761.01
2019-02-28T02:55:44.843Z,100758.33
2019-02-28T02:58:16.993Z,100763.09
2019-02-28T03:00:50.153Z,100753.53
2019-02-28T03:03:16.842Z,100750.55
2019-02-28T03:05:45.751Z,100741.03
2019-02-28T03:08:14.619Z,100743.66
2019-02-28T03:10:44.648Z,100735.01
2019-02-28T03:13:13.412Z,100735.06
2019-02-28T03:15:47.105Z,100734.61
2019-02-28T03:18:20.554Z,100725.94
2019-02-28T03:20:48.970Z,100731.63
2019-02-28T03:23:18.011Z,100733.80
2019-02-28T03:25:47.064Z,100725.52
2019-02-28T03:28:16.101Z,100722.99
2019-02-28T03:30:44.793Z,100727.72
2019-02-28T03:33:27.476Z,100724.73
2019-02-28T03:35:48.376Z,100734.29
2019-02-28T03:38:17.025Z,100731.24
2019-02-28T03:40:46.126Z,100729.92
2019-02-28T03:43:15.166Z,100730.34
2019-02-28T03:45:44.438Z,100723.38
2019-02-28T03:48:13.302Z,100710.84
2019-02-28T03:50:41.959Z,100717.82
2019-02-28T03:53:19.993Z,100720.44
2019-02-28T03:55:47.003Z,100717.00
2019-02-28T03:58:15.668Z,100715.23
2019-02-28T04:00:45.989Z,100714.34
2019-02-28T04:03:16.718Z,100706.51
2019-02-28T04:05:47.040Z,100700.42
2019-02-28T04:08:15.714Z,100702.13
2019-02-28T04:10:46.768Z,100698.27
2019-02-28T04:13:19.128Z,100707.42
2019-02-28T04:16:01.542Z,100703.95
2019-02-28T04:18:19.685Z,100703.09
2019-02-28T04:20:48.390Z,100709.58
2019-02-28T04:23:17.030Z,100700.47
2019-02-28T04:25:46.096Z,100688.30
2019-02-28T04:28:18.664Z,100688.27
2019-02-28T04:30:46.310Z,100686.57
2019-02-28T04:33:15.877Z,100683.92
2019-02-28T04:35:46.759Z,100691.25
2019-02-28T04:38:20.485Z,100686.52
2019-02-28T04:40:46.304Z,100683.02
2019-02-28T04:43:15.139Z,100686.03
2019-02-28T04:46:04.818Z,100677.80
2019-02-28T04:48:33.866Z,100684.73
2019-02-28T04:51:05.713Z,100676.91
2019-02-28T04:53:33.702Z,100676.45
2019-02-28T04:56:03.771Z,100671.22
2019-02-28T04:58:32.430Z,100669.52
2019-02-28T05:01:01.607Z,100659.59
2019-02-28T05:03:32.413Z,100663.09
2019-02-28T05:06:01.066Z,100668.73
2019-02-28T05:08:30.793Z,100676.56
2019-02-28T05:11:03.096Z,100667.89
2019-02-28T05:13:31.734Z,100675.27
2019-02-28T05:16:00.853Z,100674.81
2019-02-28T05:18:31.397Z,100672.70
2019-02-28T05:20:59.989Z,100675.27
2019-02-28T05:23:28.734Z,100677.46
2019-02-28T05:26:01.397Z,100671.81
2019-02-28T05:28:30.507Z,100670.97
2019-02-28T05:31:01.346Z,100669.72
2019-02-28T05:33:30.382Z,100668.41
2019-02-28T05:36:00.165Z,100664.09
2019-02-28T05:38:30.934Z,100659.72
2019-02-28T05:40:59.640Z,100661.38
2019-02-28T05:43:29.150Z,100656.08
2019-02-28T05:45:59.484Z,100653.87
2019-02-28T05:48:28.420Z,100648.19
2019-02-28T05:50:57.147Z,100641.65
2019-02-28T05:53:25.783Z,100638.21
2019-02-28T05:55:58.914Z,100640.82
2019-02-28T06:22:59.458Z,100671.59
2019-02-28T06:25:30.261Z,100661.58
2019-02-28T06:27:58.997Z,100661.16
2019-02-28T06:30:27.957Z,100655.48
2019-02-28T06:32:59.186Z,100657.30
2019-02-28T06:35:27.444Z,100651.22
2019-02-28T06:37:56.571Z,100662.98
2019-02-28T06:40:25.665Z,100664.70
2019-02-28T06:42:55.825Z,100662.05
2019-02-28T06:45:24.661Z,100656.87
2019-02-28T06:47:59.521Z,100659.50
2019-02-28T06:50:28.603Z,100654.67
2019-02-28T06:52:59.349Z,100660.64
2019-02-28T06:55:29.754Z,100664.53
2019-02-28T06:58:00.019Z,100667.03
2019-02-28T07:00:28.825Z,100665.23
2019-02-28T07:02:57.750Z,100661.59
2019-02-28T07:05:26.467Z,100660.18
2019-02-28T07:07:55.294Z,100663.95
2019-02-28T07:10:26.590Z,100671.23
2019-02-28T07:12:57.171Z,100668.55
2019-02-28T07:15:27.820Z,100665.77
2019-02-28T07:17:56.611Z,100664.75
2019-02-28T07:20:26.786Z,100672.45
2019-02-28T07:22:55.839Z,100673.14
2019-02-28T07:25:27.564Z,100677.63
2019-02-28T07:28:01.584Z,100680.10
2019-02-28T07:30:29.029Z,100673.01
2019-02-28T07:33:01.031Z,100675.22
2019-02-28T07:35:33.087Z,100666.36
2019-02-28T07:38:00.536Z,100667.97
2019-02-28T07:40:29.322Z,100661.62
2019-02-28T07:43:01.564Z,100665.24
2019-02-28T07:45:33.218Z,100661.13
2019-02-28T07:48:02.738Z,100670.98
2019-02-28T07:50:33.530Z,100672.30
2019-02-28T07:53:05.575Z,100674.42
2019-02-28T07:55:33.500Z,100678.27
2019-02-28T07:58:02.143Z,100680.17
2019-02-28T08:00:30.965Z,100674.89
2019-02-28T08:02:59.762Z,100670.59
2019-02-28T08:05:31.136Z,100663.87
2019-02-28T08:08:03.216Z,100663.87
2019-02-28T08:10:35.955Z,100653.22
2019-02-28T08:13:06.479Z,100653.22
2019-02-28T08:15:35.061Z,100664.59
2019-02-28T08:18:06.279Z,100660.12
2019-02-28T08:21:15.677Z,100660.12
2019-02-28T08:24:16.443Z,100664.72
2019-02-28T08:30:30.510Z,100647.64
2019-02-28T08:33:29.925Z,100651.69
2019-02-28T08:36:30.011Z,100646.66
2019-02-28T08:39:23.086Z,100638.09
2019-02-28T08:42:38.496Z,100640.37
2019-02-28T08:45:06.150Z,100642.65
2019-02-28T08:47:38.988Z,100634.06
2019-02-28T08:50:10.927Z,100619.35
2019-02-28T08:52:43.073Z,100615.51
2019-02-28T08:55:14.745Z,100621.41
2019-02-28T08:57:54.163Z,100622.78
2019-02-28T09:00:18.691Z,100615.28
2019-02-28T09:02:52.430Z,100618.12
2019-02-28T09:05:25.634Z,100621.23
2019-02-28T09:07:58.286Z,100629.49
2019-02-28T09:10:28.358Z,100633.36
2019-02-28T09:12:58.535Z,100641.56
2019-02-28T09:15:31.023Z,100639.84
2019-02-28T09:18:02.366Z,100636.25
2019-02-28T09:20:33.002Z,100617.11
2019-02-28T09:23:03.123Z,100618.02
2019-02-28T09:25:33.267Z,100613.80
2019-02-28T09:28:01.870Z,100619.23
2019-02-28T09:30:33.063Z,100618.19
2019-02-28T09:33:03.742Z,100608.07
2019-02-28T09:35:34.872Z,100615.53
2019-02-28T09:38:12.972Z,100615.61
2019-02-28T09:40:38.684Z,100605.51
2019-02-28T09:43:08.941Z,100610.77
2019-02-28T09:45:40.233Z,100607.10
2019-02-28T09:48:10.856Z,100610.83
2019-02-28T09:50:41.100Z,100612.45
2019-02-28T09:53:09.690Z,100608.46
2019-02-28T09:55:40.247Z,100600.45
2019-02-28T09:58:10.677Z,100597.60
2019-02-28T10:00:39.257Z,100599.62
2019-02-28T10:03:09.796Z,100596.91
2019-02-28T10:05:42.361Z,100606.91
2019-02-28T10:08:13.651Z,100609.92
2019-02-28T10:10:42.225Z,100612.75
2019-02-28T10:13:14.495Z,100609.36
2019-02-28T10:15:45.697Z,100612.48
2019-02-28T10:18:16.657Z,100617.34
2019-02-28T10:20:49.894Z,100620.80
2019-02-28T10:23:21.453Z,100616.61
2019-02-28T10:25:53.787Z,100619.95
2019-02-28T10:28:25.521Z,100622.38
2019-02-28T10:30:59.330Z,100632.76
2019-02-28T10:33:27.943Z,100625.06
2019-02-28T10:35:56.917Z,100618.84
2019-02-28T10:38:29.514Z,100619.77
2019-02-28T10:41:00.561Z,100624.14
2019-02-28T10:43:31.155Z,100619.25
2019-02-28T10:46:01.512Z,100620.50
2019-02-28T10:48:31.610Z,100623.06
2019-02-28T10:51:12.809Z,100614.88
2019-02-28T10:53:36.264Z,100615.88
2019-02-28T10:56:04.291Z,100619.27
2019-02-28T10:58:35.059Z,100628.61
2019-02-28T11:01:07.706Z,100625.33
2019-02-28T11:03:37.425Z,100618.52
2019-02-28T11:06:06.334Z,100616.87
2019-02-28T11:08:35.510Z,100614.32
2019-02-28T11:11:07.378Z,100612.00
2019-02-28T11:13:38.730Z,100617.53
2019-02-28T11:16:09.066Z,100621.72
2019-02-28T11:18:41.897Z,100622.53
2019-02-28T11:21:11.700Z,100622.13
2019-02-28T11:23:41.827Z,100618.81
2019-02-28T11:26:10.516Z,100618.36
2019-02-28T11:28:39.075Z,100619.36
2019-02-28T11:31:11.233Z,100615.42
2019-02-28T11:33:41.145Z,100609.87
2019-02-28T11:36:10.481Z,100618.41
2019-02-28T11:38:39.102Z,100622.78
2019-02-28T11:41:08.048Z,100630.22
2019-02-28T11:43:38.553Z,100626.04
2019-02-28T11:46:08.431Z,100621.58
2019-02-28T11:48:37.350Z,100621.17
2019-02-28T11:51:06.359Z,100623.30
2019-02-28T11:53:39.364Z,100611.49
2019-02-28T11:56:09.781Z,100606.66
2019-02-28T11:58:40.783Z,100607.94
2019-02-28T12:01:11.327Z,100590.22
2019-02-28T12:03:42.056Z,100596.37
2019-02-28T12:06:10.645Z,100591.23
2019-02-28T12:08:41.671Z,100590.38
2019-02-28T12:11:14.099Z,100585.84
2019-02-28T12:13:44.239Z,100584.20
2019-02-28T12:16:16.216Z,100580.36
2019-02-28T12:18:47.400Z,100575.05
2019-02-28T12:21:17.551Z,100572.16
2019-02-28T12:23:46.872Z,100575.05
2019-02-28T12:26:17.706Z,100580.38
2019-02-28T12:28:46.493Z,100588.19
2019-02-28T12:31:15.116Z,100584.90
2019-02-28T12:33:45.528Z,100581.01
2019-02-28T12:36:15.275Z,100583.03
2019-02-28T12:38:43.978Z,100580.21
2019-02-28T12:41:14.398Z,100590.83
2019-02-28T12:43:46.418Z,100593.48
2019-02-28T12:46:16.700Z,100592.23
2019-02-28T12:48:48.344Z,100595.30
2019-02-28T12:51:17.345Z,100592.02
2019-02-28T12:53:46.131Z,100582.55
2019-02-28T12:56:15.341Z,100587.38
2019-02-28T12:58:43.950Z,100576.06
2019-02-28T13:01:15.256Z,100572.47
2019-02-28T13:03:45.322Z,100574.34
2019-02-28T13:06:23.408Z,100574.79
2019-02-28T13:08:53.590Z,100572.69
2019-02-28T13:11:27.038Z,100574.81
2019-02-28T13:13:55.621Z,100572.86
2019-02-28T13:16:28.335Z,100569.02
2019-02-28T13:18:58.619Z,100571.12
2019-02-28T13:21:31.269Z,100573.92
2019-02-28T13:24:02.079Z,100567.01
2019-02-28T13:26:33.767Z,100569.56
2019-02-28T13:29:02.897Z,100572.00
2019-02-28T13:31:31.707Z,100564.92
2019-02-28T13:34:01.226Z,100563.33
2019-02-28T13:36:31.508Z,100562.00
2019-02-28T13:39:04.368Z,100559.47
2019-02-28T13:41:34.541Z,100557.12
2019-02-28T13:44:07.640Z,100556.27
2019-02-28T13:46:36.671Z,100552.81
2019-02-28T13:49:08.495Z,100547.47
2019-02-28T13:51:42.096Z,100547.14
2019-02-28T13:54:10.022Z,100541.66
2019-02-28T13:56:42.317Z,100539.00
2019-02-28T13:59:10.923Z,100531.48
2019-02-28T14:01:40.163Z,100526.19
2019-02-28T14:04:08.961Z,100530.11
2019-02-28T14:06:37.978Z,100532.56
2019-02-28T14:09:08.489Z,100539.03
2019-02-28T14:11:45.098Z,100538.69
2019-02-28T14:14:13.106Z,100535.89
2019-02-28T14:16:43.526Z,100525.11
2019-02-28T14:19:19.974Z,100526.28
2019-02-28T14:21:47.253Z,100531.81
2019-02-28T14:24:17.693Z,100524.74
2019-02-28T14:26:49.503Z,100528.64
2019-02-28T14:29:19.017Z,100531.20
2019-02-28T14:31:48.169Z,100523.53
2019-02-28T14:34:18.802Z,100517.89
2019-02-28T14:36:50.771Z,100523.30
2019-02-28T14:39:20.756Z,100514.20
2019-02-28T14:41:50.924Z,100523.33
2019-02-28T14:44:20.707Z,100525.53
2019-02-28T14:46:49.826Z,100529.03
2019-02-28T14:49:20.509Z,100516.44
2019-02-28T14:51:49.666Z,100522.20
2019-02-28T14:54:18.408Z,100514.44
2019-02-28T14:56:48.568Z,100515.16
2019-02-28T14:59:18.982Z,100510.03
2019-02-28T15:01:52.715Z,100517.88
2019-02-28T15:04:20.181Z,100524.14
2019-02-28T15:06:50.596Z,100518.30
2019-02-28T15:09:20.948Z,100516.77
2019-02-28T15:11:53.209Z,100517.67
2019-02-28T15:14:21.781Z,100511.98
2019-02-28T15:16:55.140Z,100510.78
2019-02-28T15:19:29.568Z,100509.77
2019-02-28T15:21:58.765Z,100507.11
2019-02-28T15:24:27.768Z,100508.92
2019-02-28T15:26:56.960Z,100503.23
2019-02-28T15:29:27.195Z,100516.36
2019-02-28T15:31:58.456Z,100514.13
2019-02-28T15:34:27.082Z,100506.34
2019-02-28T15:36:59.310Z,100506.58
2019-02-28T15:39:26.443Z,100498.27
2019-02-28T15:41:57.746Z,100493.53
2019-02-28T15:44:29.182Z,100481.45
2019-02-28T15:47:19.511Z,100489.73
2019-02-28T15:49:46.758Z,100491.20
2019-02-28T15:52:15.567Z,100488.00
2019-02-28T15:54:46.283Z,100486.17
2019-02-28T15:57:19.661Z,100487.41
2019-02-28T15:59:51.739Z,100483.57
2019-02-28T16:02:23.326Z,100484.30
2019-02-28T16:04:57.732Z,100479.06
2019-02-28T16:07:32.497Z,100474.99
2019-02-28T16:34:08.572Z,100467.06
2019-02-28T16:36:40.727Z,100472.15
2019-02-28T16:39:09.594Z,100460.02
2019-02-28T16:41:40.970Z,100470.06
2019-02-28T16:44:10.043Z,100467.10
2019-02-28T16:46:40.660Z,100472.67
2019-02-28T16:49:12.547Z,100482.31
2019-02-28T16:51:41.485Z,100481.41
2019-02-28T16:54:10.486Z,100491.26
2019-02-28T16:56:40.452Z,100500.70
2019-02-28T16:59:10.756Z,100498.06
2019-02-28T17:01:40.720Z,100494.86
2019-02-28T17:04:13.585Z,100488.16
2019-02-28T17:06:45.618Z,100498.47
2019-02-28T17:09:37.063Z,100496.11
2019-02-28T17:12:31.135Z,100504.86
2019-02-28T17:14:59.947Z,100504.62
2019-02-28T17:17:34.607Z,100503.77
2019-02-28T17:20:06.360Z,100513.10
2019-02-28T17:22:34.734Z,100498.52
2019-02-28T17:25:03.804Z,100499.14
2019-02-28T17:27:38.674Z,100493.75
2019-02-28T17:30:51.429Z,100492.20
2019-02-28T17:34:17.384Z,100503.69
2019-02-28T17:37:28.996Z,100508.91
2019-02-28T17:40:37.871Z,100504.53
2019-02-28T17:43:49.999Z,100511.16
2019-02-28T17:47:09.992Z,100517.31
2019-02-28T17:50:19.636Z,100519.05
2019-02-28T17:53:20.940Z,100524.89
2019-02-28T17:56:34.343Z,100518.59
2019-02-28T17:59:44.829Z,100519.27
2019-02-28T18:02:59.458Z,100507.02
2019-02-28T18:06:18.670Z,100512.42
2019-02-28T18:08:59.196Z,100512.47
2019-02-28T18:12:20.338Z,100513.81
2019-02-28T18:15:13.753Z,100503.53
2019-02-28T18:18:41.630Z,100502.97
2019-02-28T18:21:50.641Z,100508.61
2019-02-28T18:24:54.087Z,100504.84
2019-02-28T18:27:53.839Z,100504.67
2019-02-28T18:31:04.837Z,100511.03
2019-02-28T18:33:34.011Z,100514.59
2019-02-28T18:36:05.082Z,100513.42
2019-02-28T18:38:35.738Z,100517.88
2019-02-28T18:41:06.561Z,100516.23
2019-02-28T18:43:35.737Z,100514.20
2019-02-28T18:46:05.991Z,100524.26
2019-02-28T18:48:35.255Z,100521.53
2019-02-28T18:51:04.341Z,100526.28
2019-02-28T18:53:33.399Z,100525.35
2019-02-28T18:56:04.079Z,100531.91
2019-02-28T18:58:33.282Z,100540.92
2019-02-28T19:01:02.547Z,100536.98
2019-02-28T19:03:31.516Z,100545.23
2019-02-28T19:06:00.298Z,100546.05
2019-02-28T19:08:29.293Z,100535.63
2019-02-28T19:10:58.398Z,100529.16
2019-02-28T19:13:27.460Z,100520.48
2019-02-28T19:15:56.765Z,100525.37
2019-02-28T19:18:26.354Z,100517.23
2019-02-28T19:20:58.223Z,100525.03
2019-02-28T19:23:27.683Z,100518.09
2019-02-28T19:25:56.874Z,100511.55
2019-02-28T19:28:25.651Z,100523.88
2019-02-28T19:30:58.075Z,100521.48
2019-02-28T19:33:30.751Z,100517.25
2019-02-28T19:36:02.726Z,100524.28
2019-02-28T19:38:31.592Z,100517.33
2019-02-28T19:41:00.629Z,100513.12
2019-02-28T19:43:30.384Z,100522.71
2019-02-28T19:46:00.050Z,100520.66
2019-02-28T19:48:29.207Z,100519.93
2019-02-28T19:50:58.339Z,100522.30
2019-02-28T19:53:27.265Z,100521.91
2019-02-28T19:55:56.836Z,100518.73
2019-02-28T19:58:27.570Z,100517.53
2019-02-28T20:00:56.590Z,100526.80
2019-02-28T20:03:25.953Z,100520.81
2019-02-28T20:05:55.399Z,100522.48
2019-02-28T20:08:25.867Z,100530.68
2019-02-28T20:10:55.219Z,100534.33
2019-02-28T20:13:24.284Z,100535.03
2019-02-28T20:15:55.681Z,100531.80
2019-02-28T20:18:25.223Z,100539.39
2019-02-28T20:20:54.328Z,100532.93
2019-02-28T20:23:25.040Z,100537.12
2019-02-28T20:25:53.868Z,100544.61
2019-02-28T20:28:22.647Z,100535.09
2019-02-28T20:30:51.715Z,100535.89
2019-02-28T20:33:22.204Z,100532.39
2019-02-28T20:35:53.886Z,100528.56
2019-02-28T20:38:22.891Z,100529.81
2019-02-28T20:40:53.653Z,100534.19
2019-02-28T20:43:22.821Z,100533.00
2019-02-28T20:45:51.728Z,100538.21
2019-02-28T20:48:20.520Z,100543.16
2019-02-28T20:50:49.185Z,100541.22
2019-02-28T20:53:18.123Z,100539.69
2019-02-28T20:55:48.308Z,100539.76
2019-02-28T20:58:18.868Z,100537.49
2019-02-28T21:00:47.658Z,100530.48
2019-02-28T21:03:16.450Z,100529.87
2019-02-28T21:05:45.578Z,100529.50
2019-02-28T21:08:17.458Z,100532.65
2019-02-28T21:10:46.722Z,100526.11
2019-02-28T21:13:15.423Z,100529.22
2019-02-28T21:15:44.558Z,100526.72
2019-02-28T21:18:16.130Z,100525.56
2019-02-28T21:20:46.519Z,100524.92
2019-02-28T21:23:15.473Z,100520.82
2019-02-28T21:25:44.721Z,100524.03
2019-02-28T21:28:15.334Z,100520.98
2019-02-28T21:30:43.959Z,100522.78
2019-02-28T21:33:12.885Z,100520.64
2019-02-28T21:35:46.204Z,100518.61
2019-02-28T21:38:14.862Z,100512.14
2019-02-28T21:40:45.153Z,100515.97
2019-02-28T21:43:13.876Z,100507.36
2019-02-28T21:45:44.963Z,100503.41
2019-02-28T21:48:13.909Z,100502.48
2019-02-28T21:50:43.099Z,100500.28
2019-02-28T21:53:12.043Z,100495.61
2019-02-28T21:55:40.972Z,100497.84
2019-02-28T21:58:09.820Z,100495.88
2019-02-28T22:00:39.126Z,100495.82
2019-02-28T22:03:07.883Z,100491.01
2019-02-28T22:05:37.083Z,100494.91
2019-02-28T22:08:05.725Z,100495.00
2019-02-28T22:10:34.854Z,100494.29
2019-02-28T22:13:04.751Z,100493.74
2019-02-28T22:15:33.789Z,100493.32
2019-02-28T22:18:02.612Z,100490.84
2019-02-28T22:20:31.576Z,100497.45
2019-02-28T22:23:00.773Z,100492.57
2019-02-28T22:25:32.605Z,100493.94
2019-02-28T22:28:02.813Z,100489.42
2019-02-28T22:30:56.121Z,100494.20
2019-02-28T22:34:04.022Z,100496.19
2019-02-28T22:36:41.591Z,100491.45
2019-02-28T22:39:10.319Z,100485.29
2019-02-28T22:41:39.563Z,100485.59
2019-02-28T22:44:08.188Z,100480.92
2019-02-28T22:46:37.283Z,100477.67
2019-02-28T22:49:06.337Z,100476.62
2019-02-28T22:51:36.610Z,100474.25
2019-02-28T22:54:06.809Z,100463.41
2019-02-28T22:56:37.749Z,100454.94
2019-02-28T22:59:06.565Z,100453.42
2019-02-28T23:01:36.122Z,100451.36
2019-02-28T23:04:06.610Z,100447.66
2019-02-28T23:06:35.281Z,100452.33
2019-02-28T23:09:05.696Z,100452.56
2019-02-28T23:11:34.677Z,100443.66
2019-02-28T23:14:05.636Z,100442.19
2019-02-28T23:16:35.002Z,100446.72
2019-02-28T23:19:03.881Z,100440.88
2019-02-28T23:21:32.946Z,100446.22
2019-02-28T23:24:01.823Z,100448.86
2019-02-28T23:26:30.588Z,100442.39
2019-02-28T23:29:15.602Z,100435.05
2019-02-28T23:32:15.802Z,100425.12
2019-02-28T23:34:53.255Z,100423.87
2019-02-28T23:37:23.937Z,100421.80
2019-02-28T23:39:53.898Z,100417.81
2019-02-28T23:42:22.922Z,100416.21
2019-02-28T23:44:51.752Z,100409.36
2019-02-28T23:47:20.803Z,100407.14
2019-02-28T23:49:50.048Z,100403.31
2019-02-28T23:52:19.027Z,100395.47
2019-02-28T23:54:48.261Z,100395.73
2019-02-28T23:57:17.129Z,100392.56
2019-02-28T23:59:47.613Z,100385.53
